Floweree, MT (59440)

05:22 MDT le 28 août 2014 (GMT -0600)
Countryside Village | Change Station
CLOSE
Current Station
Stations météorologiques personnelles
Location: Great Falls, MT
Altitude: 3514 ft
Stations météo à proximité

Alt. 3514 ft 47.54 °N, 111.29 °W | Updated 5 seconds ago

Ciel dégagé
Ciel dégagé
56.5 ° F
Paraît 56.5 ° F
N
2.2
Vent Variable Vent de Ouest
Gusts 4.5 mph

Aujourd'hui
Haut(e) -- | Bas -- ° F
--% Risque de précip.
Hier
Haut(e) -- | Bas -- ° F
Precip. -- pouce
6:38 AM 8:12 PM
Lune montante, 7% visible
Pression 29.94 pouce
Visibilité 10.0 Miles terrestres
Nuages Ciel dégagé
Point de rosée 52 ° F
Humidité 85%
Précipitations 0.00 pouce
Profondeur de la couche neigeuse Non disponible.
UV 0 sur 12
Pollen 8.90 sur 12
Qualité de l'air Non disponible.
Flu Activity Non disponible.
METAR KGFA 281056Z AUTO 21011KT 10SM CLR 14/09 A3000 RMK AO2 SLP139 T01430086

More Conditions Fewer Conditions

Pression 29.94 pouce
Visibilité 10.0 Miles terrestres
Nuages Ciel dégagé
Point de rosée 52 ° F
Humidité 85%
Précipitations 0.00 pouce
Profondeur de la couche neigeuse Non disponible.
UV 0 sur 12
Pollen 8.90 sur 12
Qualité de l'air Non disponible.
Flu Activity Non disponible.
METAR KGFA 281056Z AUTO 21011KT 10SM CLR 14/09 A3000 RMK AO2 SLP139 T01430086

More Conditions Fewer Conditions

10-Day Weather Forecast

Almanac

Astronomie

Aug. 28, 2014 Lever Coucher
Temps réel 06:38 MDT 20:12 MDT
Crépuscule civil 06:05 MDT 20:45 MDT
Crépuscule nautique 05:26 MDT 21:24 MDT
Crépuscule astronomique 04:43 MDT 22:06 MDT
Lune 09:49 MDT 21:21 MDT
Durée de lumière visible 14h 39m
Longueur du jour
13h 34m
Tomorrow will be 3m 18s shorter.
Lune montante, 7% of the Moon is Illuminated
Aujourd'hui
Lune montante
Sep 2
Premier quartier
Sep 8
Pleine lune
Sep 15
Dernier quartier
Sep 24
Nouveau

Extrêmes aujourd'hui

State Highs State Lows

Community

WunderPhotos

Upload Photos

1,747,923 Photos téléchargées !

Nearby

Épaisseur de neige

Station Depth Altitude
Stringer Creek 0 in 6550 ft
Onion Park 0 in 7410 ft
Deadman Creek 0 in 6450 ft
Spur Park 0 in 8100 ft
Boulder Mountain 0 in 7950 ft

Activité sismique

Ville Distance Mag. Time & Date
No recent earthquake activity has been reported nearby.
Minimum magnitude displayed is 2.5.

Températures des eaux côtières

Lieu Température
Aucun rapport de station

Stations météo à proximité